Latest Weather Observations for Shark Bay Airport

IDW60801

Issued at 11:35 pm WST Saturday 25 October 2014 (issued every 30 minutes, with the page automatically refreshed every 10 minutes)

About weather observations | Map of weather stations | Latest weather observations for WA | Other Formats
Station Details ID: 006105 Name: SHARK BAY AIRPORT Lat: -25.89 Lon: 113.58 Height: 33.8 m
Data from the previous 72 hours. | See also: Recent months for locations in Western Australia
Date/Time
WST
Temp
°C
App
Temp
°C
Dew
Point
Rel
Hum
%
Delta-T
°C
Wind Press
QNH
hPa
Press
MSL
hPa
Rain
since 9 am
mm
Dir
 
Spd
km/h
Gust
km/h
Spd
kts
Gust
kts
25/11:30pm 19.3 16.1 13.2 68 3.5 S 22 33 12 18 1019.5 1019.4 0.0
25/11:00pm 19.3 16.1 13.2 68 3.5 S 22 32 12 17 1019.5 1019.4 0.0
25/10:30pm 19.3 16.0 12.8 66 3.7 S 22 30 12 16 1019.5 1019.4 0.0
25/10:00pm 19.4 16.2 13.1 67 3.6 S 22 30 12 16 1019.5 1019.4 0.0
25/09:30pm 19.7 16.7 12.7 64 3.9 S 20 28 11 15 1019.5 1019.4 0.0
25/09:00pm 19.8 16.3 12.1 61 4.3 S 22 33 12 18 1019.7 1019.6 0.0
25/08:30pm 20.0 16.2 12.5 62 4.2 S 24 35 13 19 1019.7 1019.6 0.0
25/08:00pm 20.2 16.0 12.4 61 4.4 S 26 37 14 20 1019.4 1019.3 0.0
25/07:30pm 20.6 17.4 13.1 62 4.3 S 22 32 12 17 1019.1 1019.0 0.0
25/07:00pm 20.9 17.1 12.3 58 4.8 S 24 35 13 19 1018.8 1018.7 0.0
25/06:30pm 21.5 17.3 12.4 56 5.1 S 26 37 14 20 1018.6 1018.5 0.0
25/06:00pm 22.4 17.8 12.4 53 5.7 S 28 41 15 22 1018.5 1018.4 0.0
25/05:30pm 23.2 18.6 12.2 50 6.3 S 28 41 15 22 1018.3 1018.2 0.0
25/05:00pm 24.4 19.5 11.4 44 7.3 SSW 28 37 15 20 1018.2 1018.1 0.0
25/04:30pm 24.8 19.3 11.7 44 7.4 S 32 39 17 21 1018.1 1018.0 0.0
25/04:00pm 25.7 20.9 11.8 42 7.9 S 28 41 15 22 1018.1 1018.0 0.0
25/03:30pm 25.6 20.8 12.8 45 7.4 SW 30 41 16 22 1018.0 1017.9 0.0
25/03:00pm 26.6 22.3 11.9 40 8.4 SSW 26 44 14 24 1018.2 1018.1 0.0
25/02:30pm 26.2 22.1 11.5 40 8.4 SW 24 37 13 20 1018.4 1018.3 0.0
25/02:00pm 26.0 21.6 11.7 41 8.1 SW 26 33 14 18 1018.5 1018.4 0.0
25/01:30pm 25.9 21.8 12.7 44 7.7 SW 26 37 14 20 1018.7 1018.6 0.0
25/01:00pm 26.6 23.5 13.3 43 7.8 SW 22 35 12 19 1018.9 1018.8 0.0
25/12:30pm 25.9 22.1 12.4 43 7.8 SW 24 35 13 19 1019.0 1018.9 0.0
25/12:00pm 26.1 22.6 12.2 42 8.0 SW 22 33 12 18 1019.3 1019.2 0.0
25/11:30am 25.6 21.4 11.0 40 8.2 SW 24 33 13 18 1019.4 1019.3 0.0
25/11:00am 24.9 21.1 11.1 42 7.7 SSW 22 30 12 16 1019.6 1019.5 0.0
25/10:30am 25.5 22.5 12.7 45 7.4 S 20 33 11 18 1019.6 1019.5 0.0
25/10:00am 23.9 21.1 13.2 51 6.2 SSW 20 30 11 16 1019.8 1019.7 0.0
25/09:30am 24.5 21.7 13.1 49 6.6 S 20 28 11 15 1019.6 1019.5 0.0
25/09:00am 21.9 18.7 13.0 57 5.1 SW 22 30 12 16 1019.7 1019.6 0.0
25/08:30am 21.8 18.9 12.4 55 5.3 S 19 26 10 14 1019.4 1019.3 0.0
25/08:00am 23.1 20.2 13.0 53 5.8 S 20 32 11 17 1019.2 1019.1 0.0
25/07:30am 22.2 19.8 12.7 55 5.4 SSE 17 20 9 11 1019.1 1019.0 0.0
25/07:00am 20.5 19.0 13.2 63 4.2 SSE 13 17 7 9 1018.9 1018.8 0.0
25/06:30am 18.2 17.3 12.6 70 3.1 SSE 9 13 5 7 1018.4 1018.3 0.0
25/06:00am 16.9 15.0 11.8 72 2.8 S 13 15 7 8 1018.1 1018.0 0.0
25/05:30am 17.5 15.7 12.0 70 3.0 S 13 17 7 9 1017.9 1017.8 0.0
25/05:00am 18.1 16.0 12.5 70 3.1 S 15 20 8 11 1017.6 1017.5 0.0
25/04:30am 18.8 16.6 12.1 65 3.7 S 15 20 8 11 1017.3 1017.2 0.0
25/04:00am 19.4 16.6 13.1 67 3.6 SSW 20 26 11 14 1017.1 1017.0 0.0
25/03:30am 19.5 17.1 13.9 70 3.2 SSW 19 26 10 14 1016.9 1016.8 0.0
25/03:00am 19.3 17.4 14.3 73 2.9 SSW 17 20 9 11 1016.6 1016.5 0.0
25/02:30am 18.6 17.3 14.7 78 2.3 SSW 15 19 8 10 1016.2 1016.1 0.0
25/02:00am 18.5 17.4 14.4 77 2.4 S 13 17 7 9 1016.0 1015.9 0.0
25/01:30am 18.3 17.9 14.2 77 2.4 S 9 13 5 7 1016.0 1015.9 0.0
25/01:00am 18.2 16.9 13.7 75 2.6 S 13 17 7 9 1016.1 1016.0 0.0
25/12:30am 18.3 17.5 14.0 76 2.5 S 11 15 6 8 1016.5 1016.4 0.0
25/12:00am 19.2 17.9 13.8 71 3.1 S 13 19 7 10 1016.5 1016.4 0.0
 
Date/Time
WST
Temp
°C
App
Temp
°C
Dew
Point
Rel
Hum
%
Delta-T
°C
Wind Press
QNH
hPa
Press
MSL
hPa
Rain
since 9 am
mm
Dir
 
Spd
km/h
Gust
km/h
Spd
kts
Gust
kts
24/11:30pm 20.0 18.4 13.9 68 3.5 S 15 20 8 11 1016.6 1016.5 0.0
24/11:00pm 20.3 18.0 14.7 70 3.3 S 20 26 11 14 1016.8 1016.7 0.0
24/10:30pm 20.2 18.5 14.6 70 3.3 SSW 17 22 9 12 1016.8 1016.7 0.0
24/10:00pm 19.9 18.0 14.3 70 3.2 S 17 24 9 13 1016.9 1016.8 0.0
24/09:30pm 19.5 17.1 13.7 69 3.3 SSW 19 28 10 15 1016.6 1016.5 0.0
24/09:00pm 19.7 16.6 13.4 67 3.6 SSW 22 30 12 16 1016.4 1016.3 0.0
24/08:30pm 20.0 16.2 13.5 66 3.7 SSW 26 35 14 19 1016.3 1016.2 0.0
24/08:00pm 20.3 16.5 13.7 66 3.8 SSW 26 35 14 19 1016.1 1016.0 0.0
24/07:30pm 20.3 16.9 13.7 66 3.8 SSW 24 39 13 21 1015.6 1015.5 0.0
24/07:00pm 20.7 17.3 13.6 64 4.1 SW 24 33 13 18 1015.1 1015.0 0.0
24/06:30pm 21.2 17.9 13.9 63 4.2 SW 24 33 13 18 1014.6 1014.5 0.0
24/06:00pm 21.9 18.2 14.0 61 4.6 SW 26 35 14 19 1014.3 1014.2 0.0
24/05:30pm 23.0 19.1 14.3 58 5.1 SW 28 39 15 21 1014.2 1014.1 0.0
24/05:00pm 23.4 18.9 13.8 54 5.6 SW 30 43 16 23 1014.3 1014.2 0.0
24/04:30pm 23.8 18.9 14.2 55 5.7 SW 33 44 18 24 1014.0 1013.9 0.0
24/04:00pm 24.2 19.7 14.9 56 5.6 SSW 32 41 17 22 1014.1 1014.0 0.0
24/03:30pm 24.8 20.1 14.9 54 5.9 SW 33 43 18 23 1014.2 1014.1 0.0
24/03:00pm 25.1 21.3 14.6 52 6.3 SW 28 43 15 23 1014.2 1014.1 0.0
24/02:30pm 26.1 22.1 14.2 48 7.1 SW 28 37 15 20 1014.3 1014.2 0.0
24/02:00pm 25.9 21.7 13.4 46 7.3 SW 28 39 15 21 1014.4 1014.3 0.0
24/01:30pm 25.6 21.3 13.1 46 7.3 SW 28 39 15 21 1014.5 1014.4 0.0
24/01:00pm 26.3 22.4 13.4 45 7.6 SW 26 37 14 20 1014.8 1014.7 0.0
24/12:30pm 26.4 22.7 12.8 43 7.9 SW 24 35 13 19 1014.9 1014.8 0.0
24/12:00pm 26.6 22.6 11.9 40 8.4 SW 24 32 13 17 1015.1 1015.0 0.0
24/11:30am 26.5 22.2 9.4 34 9.4 SW 22 28 12 15 1015.3 1015.2 0.0
24/11:00am 25.6 21.3 9.4 36 8.9 SW 22 30 12 16 1015.4 1015.3 0.0
24/10:30am 24.9 20.2 10.7 40 7.9 SW 26 33 14 18 1015.6 1015.5 0.0
24/10:00am 24.5 20.1 11.8 45 7.2 SSW 26 32 14 17 1015.7 1015.6 0.0
24/09:30am 23.7 20.3 11.4 46 6.9 S 20 33 11 18 1015.8 1015.7 0.0
24/09:00am 23.8 21.0 11.5 46 6.9 SSE 17 26 9 14 1015.9 1015.8 0.0
24/08:30am 23.0 19.9 11.7 49 6.4 S 19 26 10 14 1015.8 1015.7 0.0
24/08:00am 22.2 19.0 11.9 52 5.8 S 20 28 11 15 1015.9 1015.8 0.0
24/07:30am 21.1 18.0 12.3 57 5.0 S 20 30 11 16 1016.0 1015.9 0.0
24/07:00am 19.5 16.5 12.5 64 3.9 S 20 30 11 16 1016.0 1015.9 0.0
24/06:30am 17.8 15.9 12.9 73 2.7 SSE 15 22 8 12 1015.8 1015.7 0.0
24/06:00am 16.3 14.6 12.5 78 2.1 S 13 19 7 10 1015.6 1015.5 0.0
24/05:30am 16.2 14.6 12.7 80 1.9 SSE 13 19 7 10 1015.3 1015.2 0.0
24/05:00am 16.1 14.6 13.0 82 1.7 S 13 17 7 9 1015.3 1015.2 0.0
24/04:30am 16.2 14.7 13.1 82 1.7 S 13 15 7 8 1015.3 1015.2 0.0
24/04:00am 16.3 14.8 13.2 82 1.7 S 13 15 7 8 1015.1 1015.0 0.0
24/03:30am 16.7 15.4 13.6 82 1.7 S 13 19 7 10 1015.1 1015.0 0.0
24/03:00am 17.1 15.5 14.0 82 1.8 SSE 15 20 8 11 1015.0 1014.9 0.0
24/02:30am 17.3 15.9 14.4 83 1.7 SSE 15 20 8 11 1015.3 1015.2 0.0
24/02:00am 17.3 16.0 14.8 85 1.4 SSE 15 20 8 11 1015.4 1015.3 0.0
24/01:30am 16.8 15.7 14.3 85 1.4 SE 13 17 7 9 1015.7 1015.6 0.0
24/01:00am 16.6 15.7 13.7 83 1.6 SSE 11 13 6 7 1016.0 1015.9 0.0
24/12:30am 17.1 16.5 13.6 80 2.0 SSE 9 9 5 5 1016.1 1016.0 0.0
24/12:00am 17.7 17.7 14.2 80 2.0 S 7 9 4 5 1016.2 1016.1 0.0
 
Date/Time
WST
Temp
°C
App
Temp
°C
Dew
Point
Rel
Hum
%
Delta-T
°C
Wind Press
QNH
hPa
Press
MSL
hPa
Rain
since 9 am
mm
Dir
 
Spd
km/h
Gust
km/h
Spd
kts
Gust
kts
23/11:30pm 18.0 16.9 14.3 79 2.1 S 13 15 7 8 1016.2 1016.1 0.0
23/11:00pm 18.4 17.2 14.1 76 2.5 S 13 15 7 8 1016.3 1016.2 0.0
23/10:30pm 18.7 17.6 14.2 75 2.6 S 13 17 7 9 1016.3 1016.2 0.0
23/10:00pm 19.1 18.0 14.4 74 2.7 S 13 17 7 9 1016.3 1016.2 0.0
23/09:30pm 19.3 17.8 14.1 72 3.0 S 15 20 8 11 1016.3 1016.2 0.0
23/09:00pm 19.9 17.5 14.3 70 3.2 S 20 28 11 15 1016.2 1016.1 0.0
23/08:30pm 20.3 17.7 14.9 71 3.2 SSW 22 28 12 15 1016.2 1016.1 0.0
23/08:00pm 20.4 18.2 14.5 69 3.4 SSW 19 28 10 15 1016.1 1016.0 0.0
23/07:30pm 20.8 18.1 14.5 67 3.7 SW 22 28 12 15 1015.8 1015.7 0.0
23/07:00pm 21.1 18.4 14.7 67 3.8 SW 22 30 12 16 1015.6 1015.5 0.0
23/06:30pm 21.6 19.2 14.5 64 4.2 SW 20 30 11 16 1015.5 1015.4 0.0
23/06:00pm 22.4 19.2 14.3 60 4.8 SW 24 32 13 17 1015.4 1015.3 0.0
23/05:30pm 23.0 19.7 14.0 57 5.3 SW 24 30 13 16 1015.3 1015.2 0.0
23/05:00pm 23.5 20.1 14.8 58 5.2 SW 26 37 14 20 1015.1 1015.0 0.0
23/04:30pm 24.2 20.8 13.7 52 6.1 WSW 24 35 13 19 1015.2 1015.1 0.0
23/04:00pm 24.7 21.1 13.0 48 6.8 WSW 24 35 13 19 1015.3 1015.2 0.0
23/03:30pm 25.7 22.3 12.5 44 7.6 SW 22 30 12 16 1015.4 1015.3 0.0
23/03:00pm 25.8 22.3 12.3 43 7.8 SW 22 33 12 18 1015.5 1015.4 0.0
23/02:30pm 26.1 22.2 12.2 42 8.0 WSW 24 37 13 20 1015.8 1015.7 0.0
23/02:00pm 25.7 21.2 11.5 41 8.1 SW 26 37 14 20 1016.0 1015.9 0.0
23/01:30pm 26.9 23.1 12.5 40 8.4 W 24 41 13 22 1016.3 1016.2 0.0
23/01:00pm 27.1 23.8 12.7 41 8.4 W 22 32 12 17 1016.5 1016.4 0.0
23/12:30pm 25.7 21.8 10.7 39 8.4 W 22 35 12 19 1016.7 1016.6 0.0
23/12:00pm 25.9 22.3 10.5 38 8.6 W 20 32 11 17 1017.1 1017.0 0.0
23/11:30am 25.3 21.4 9.6 37 8.6 WSW 20 28 11 15 1017.5 1017.4 0.0
23/11:00am 25.5 21.8 9.3 36 8.8 WSW 19 28 10 15 1017.8 1017.7 0.0
23/10:30am 24.3 20.2 7.9 35 8.7 WSW 19 26 10 14 1018.1 1018.0 0.0
23/10:00am 24.8 21.5 7.9 34 9.0 WSW 15 33 8 18 1018.2 1018.1 0.0
23/09:30am 23.7 20.1 10.0 42 7.5 W 19 28 10 15 1018.2 1018.1 0.0
23/09:00am 23.8 21.5 11.8 47 6.8 SW 15 26 8 14 1018.0 1017.9 0.0
23/08:30am 23.2 22.7 12.5 51 6.1 SW 7 19 4 10 1017.6 1017.5 0.0
23/08:00am 22.0 20.9 10.8 49 6.2 SSW 7 11 4 6 1017.1 1017.0 0.0
23/07:30am 21.8 20.5 11.2 51 5.9 W 9 13 5 7 1016.9 1016.8 0.0
23/07:00am 20.5 19.7 10.9 54 5.3 SE 6 7 3 4 1016.9 1016.8 0.0
23/06:30am 18.5 18.2 11.3 63 3.9 S 4 7 2 4 1016.7 1016.6 0.0
23/06:00am 15.8 14.4 9.7 67 3.2 WSW 7 11 4 6 1016.7 1016.6 0.0
23/05:30am 16.5 15.2 10.1 66 3.4 SW 7 11 4 6 1016.5 1016.4 0.0
23/05:00am 18.4 16.3 11.2 63 3.9 SW 13 17 7 9 1016.3 1016.2 0.0
23/04:30am 18.9 17.7 12.9 68 3.4 SSW 11 17 6 9 1016.3 1016.2 0.0
23/04:00am 17.0 15.9 10.8 67 3.3 SW 7 11 4 6 1016.4 1016.3 0.0
23/03:30am 16.8 14.8 10.0 64 3.6 WSW 11 13 6 7 1016.4 1016.3 0.0
23/03:00am 18.3 16.0 11.6 65 3.7 WSW 15 20 8 11 1016.5 1016.4 0.0
23/02:30am 19.5 16.5 12.7 65 3.8 SW 20 28 11 15 1016.6 1016.5 0.0
23/02:00am 18.2 17.6 13.5 74 2.7 SW 9 13 5 7 1016.8 1016.7 0.0
23/01:30am 17.1 16.2 11.4 69 3.1 WSW 7 9 4 5 1017.0 1016.9 0.0
23/01:00am 18.6 16.9 12.4 67 3.4 WSW 13 19 7 10 1017.3 1017.2 0.0
23/12:30am 18.2 17.3 12.6 70 3.1 WSW 9 13 5 7 1017.4 1017.3 0.0
23/12:00am 18.4 17.3 13.0 71 3.0 WSW 11 13 6 7 1017.7 1017.6 0.0

Other Formats:

Comma delimited format used in spreadsheet applications
http://www.bom.gov.au/fwo/IDW60801/IDW60801.95402.axf

JavaScript Object Notation format (JSON) in row-major order
http://www.bom.gov.au/fwo/IDW60801/IDW60801.95402.json